createdAt,value
2022-10-05T00:01:01.608Z,19.35
2022-10-05T00:04:15.298Z,18.94
2022-10-05T00:07:19.588Z,18.80
2022-10-05T00:10:22.741Z,18.96
2022-10-05T00:13:27.465Z,19.22
2022-10-05T00:16:35.118Z,19.45
2022-10-05T00:19:39.466Z,19.24
2022-10-05T00:22:41.936Z,18.91
2022-10-05T00:25:44.413Z,18.84
2022-10-05T00:28:47.042Z,19.06
2022-10-05T00:31:51.525Z,19.17
2022-10-05T00:34:54.021Z,19.48
2022-10-05T00:37:57.045Z,19.92
2022-10-05T00:41:09.275Z,20.12
2022-10-05T00:44:25.776Z,20.15
2022-10-05T00:47:37.525Z,20.48
2022-10-05T00:50:51.998Z,20.71
2022-10-05T00:54:02.717Z,20.83
2022-10-05T00:57:26.454Z,19.93
2022-10-05T01:00:29.474Z,18.99
2022-10-05T01:03:47.528Z,19.46
2022-10-05T01:07:03.006Z,19.23
2022-10-05T01:10:15.847Z,19.33
2022-10-05T01:13:29.570Z,19.18
2022-10-05T01:16:38.735Z,18.20
2022-10-05T01:19:56.093Z,18.11
2022-10-05T01:23:30.158Z,18.30
2022-10-05T01:26:48.793Z,18.13
2022-10-05T01:29:59.373Z,18.29
2022-10-05T01:33:13.101Z,18.31
2022-10-05T01:36:22.353Z,18.63
2022-10-05T01:39:28.592Z,18.14
2022-10-05T01:42:45.461Z,18.44
2022-10-05T01:45:59.410Z,18.53
2022-10-05T01:49:15.396Z,18.92
2022-10-05T01:52:28.658Z,18.82
2022-10-05T01:55:37.950Z,18.24
2022-10-05T01:58:50.225Z,18.16
2022-10-05T02:01:59.699Z,17.58
2022-10-05T02:05:09.264Z,17.02
2022-10-05T02:08:16.671Z,17.69
2022-10-05T02:11:19.686Z,17.73
2022-10-05T02:14:25.866Z,17.39
2022-10-05T02:17:37.517Z,17.41
2022-10-05T02:20:43.323Z,17.11
2022-10-05T02:23:48.102Z,17.35
2022-10-05T02:26:53.134Z,17.47
2022-10-05T02:30:00.579Z,17.21
2022-10-05T02:33:09.618Z,17.19
2022-10-05T02:36:15.907Z,17.17
2022-10-05T02:39:24.858Z,17.59
2022-10-05T02:42:34.166Z,18.04
2022-10-05T02:45:48.012Z,18.02
2022-10-05T02:49:03.700Z,17.25
2022-10-05T02:52:13.235Z,17.11
2022-10-05T02:55:20.523Z,17.09
2022-10-05T02:58:26.838Z,16.08
2022-10-05T03:01:35.229Z,15.75
2022-10-05T03:04:45.433Z,18.08
2022-10-05T03:07:54.339Z,18.78
2022-10-05T03:11:05.724Z,18.61
2022-10-05T03:14:14.416Z,18.29
2022-10-05T03:17:20.798Z,17.68
2022-10-05T03:20:37.576Z,18.24
2022-10-05T03:23:52.487Z,16.13
2022-10-05T03:27:03.337Z,16.98
2022-10-05T03:30:09.581Z,16.07
2022-10-05T03:33:21.504Z,15.74
2022-10-05T03:36:28.261Z,17.40
2022-10-05T03:39:37.367Z,17.80
2022-10-05T03:42:51.765Z,17.72
2022-10-05T03:46:02.107Z,17.49
2022-10-05T03:49:15.027Z,16.36
2022-10-05T03:52:24.421Z,16.60
2022-10-05T03:55:35.109Z,17.55
2022-10-05T03:58:44.662Z,16.59
2022-10-05T04:01:52.839Z,16.48
2022-10-05T04:05:01.288Z,16.98
2022-10-05T04:08:11.254Z,17.49
2022-10-05T04:11:17.920Z,17.73
2022-10-05T04:14:25.055Z,18.14
2022-10-05T04:17:35.715Z,18.89
2022-10-05T04:20:44.249Z,19.02
2022-10-05T04:23:54.526Z,19.15
2022-10-05T04:27:01.436Z,18.77
2022-10-05T04:30:08.118Z,18.48
2022-10-05T04:33:12.670Z,18.08
2022-10-05T04:36:25.212Z,17.40
2022-10-05T04:39:42.158Z,17.52
2022-10-05T04:42:52.462Z,17.65
2022-10-05T04:46:15.138Z,17.55
2022-10-05T04:49:40.807Z,17.45
2022-10-05T04:52:50.948Z,17.70
2022-10-05T04:56:02.173Z,17.37
2022-10-05T04:59:30.071Z,17.91
2022-10-05T05:02:52.712Z,18.66
2022-10-05T05:06:16.754Z,19.34
2022-10-05T05:09:54.069Z,18.73
2022-10-05T05:13:10.711Z,19.08
2022-10-05T05:16:21.869Z,18.84
2022-10-05T05:19:40.911Z,18.47
2022-10-05T05:22:51.806Z,17.33
2022-10-05T05:26:04.502Z,16.39
2022-10-05T05:29:19.729Z,17.33
2022-10-05T05:32:36.607Z,16.97
2022-10-05T05:36:08.603Z,17.35
2022-10-05T05:39:24.799Z,18.36
2022-10-05T05:42:40.805Z,18.85
2022-10-05T05:45:55.089Z,18.64
2022-10-05T05:48:59.071Z,18.73
2022-10-05T05:52:05.377Z,19.20
2022-10-05T05:55:14.230Z,18.75
2022-10-05T05:58:23.324Z,18.80
2022-10-05T06:01:33.850Z,18.20
2022-10-05T06:04:43.695Z,17.85
2022-10-05T06:07:46.426Z,18.24
2022-10-05T06:10:53.249Z,18.07
2022-10-05T06:13:59.107Z,18.38
2022-10-05T06:17:06.124Z,17.85
2022-10-05T06:20:28.749Z,18.65
2022-10-05T06:23:39.988Z,19.24
2022-10-05T06:27:08.059Z,18.53
2022-10-05T06:30:14.180Z,18.62
2022-10-05T06:33:29.513Z,18.43
2022-10-05T06:36:41.521Z,19.08
2022-10-05T06:40:00.900Z,19.86
2022-10-05T06:43:17.571Z,19.77
2022-10-05T06:46:24.706Z,18.98
2022-10-05T06:49:32.167Z,19.07
2022-10-05T06:52:43.567Z,19.28
2022-10-05T06:55:54.888Z,20.30
2022-10-05T06:59:05.231Z,20.31
2022-10-05T07:02:18.392Z,19.03
2022-10-05T07:05:53.846Z,19.78
2022-10-05T07:09:12.062Z,20.78
2022-10-05T07:12:45.519Z,20.07
2022-10-05T07:15:59.852Z,19.69
2022-10-05T07:19:17.541Z,20.41
2022-10-05T07:22:37.034Z,20.18
2022-10-05T07:25:47.253Z,20.22
2022-10-05T07:28:57.090Z,20.42
2022-10-05T07:32:12.256Z,19.70
2022-10-05T07:35:39.142Z,19.92
2022-10-05T07:38:49.968Z,19.75
2022-10-05T07:42:00.331Z,19.58
2022-10-05T07:45:14.383Z,19.79
2022-10-05T07:48:21.999Z,19.81
2022-10-05T07:51:32.429Z,19.97
2022-10-05T07:54:45.820Z,20.26
2022-10-05T07:57:57.216Z,20.66
2022-10-05T08:01:06.658Z,21.21
2022-10-05T08:04:16.373Z,21.35
2022-10-05T08:07:19.844Z,21.16
2022-10-05T08:10:32.652Z,22.57
2022-10-05T08:13:43.352Z,21.68
2022-10-05T08:16:48.474Z,22.00
2022-10-05T08:20:02.194Z,22.33
2022-10-05T08:23:13.201Z,22.21
2022-10-05T08:26:25.249Z,22.17
2022-10-05T08:29:33.482Z,21.77
2022-10-05T08:32:41.216Z,21.90
2022-10-05T08:35:46.118Z,22.09
2022-10-05T08:38:50.741Z,21.44
2022-10-05T08:42:30.566Z,21.91
2022-10-05T08:45:51.854Z,21.96
2022-10-05T08:49:20.814Z,22.41
2022-10-05T08:52:28.908Z,22.27
2022-10-05T08:55:40.099Z,22.52
2022-10-05T08:59:02.546Z,22.36
2022-10-05T09:02:21.773Z,22.49
2022-10-05T09:05:56.726Z,23.23
2022-10-05T09:09:32.087Z,23.34
2022-10-05T09:12:52.892Z,22.90
2022-10-05T09:16:28.078Z,23.93
2022-10-05T09:20:07.722Z,24.21
2022-10-05T09:23:14.087Z,23.13
2022-10-05T09:26:43.723Z,23.42
2022-10-05T09:30:11.407Z,23.25
2022-10-05T09:33:56.715Z,23.38
2022-10-05T09:37:34.167Z,22.45
2022-10-05T09:41:10.173Z,22.77
2022-10-05T09:44:41.229Z,22.66
2022-10-05T09:48:01.922Z,23.16
2022-10-05T09:51:37.076Z,22.69
2022-10-05T09:55:20.338Z,23.23
2022-10-05T09:59:14.348Z,22.28
2022-10-05T10:02:34.984Z,22.52
2022-10-05T10:06:11.172Z,23.28
2022-10-05T10:09:29.245Z,22.67
2022-10-05T10:12:46.732Z,23.48
2022-10-05T10:16:09.673Z,25.72
2022-10-05T10:19:29.073Z,26.64
2022-10-05T10:22:50.137Z,26.59
2022-10-05T10:26:11.305Z,26.88
2022-10-05T10:29:43.247Z,27.87
2022-10-05T10:33:02.678Z,27.40
2022-10-05T10:36:14.196Z,26.44
2022-10-05T10:39:25.398Z,26.11
2022-10-05T10:42:38.647Z,27.21
2022-10-05T10:45:53.777Z,27.58
2022-10-05T10:49:02.256Z,26.61
2022-10-05T10:52:33.595Z,26.08
2022-10-05T10:55:44.551Z,25.13
2022-10-05T10:59:11.558Z,25.50
2022-10-05T11:02:37.214Z,25.61
2022-10-05T11:05:58.025Z,25.33
2022-10-05T11:09:21.178Z,25.60
2022-10-05T11:13:11.659Z,26.25
2022-10-05T11:16:40.930Z,26.53
2022-10-05T11:20:03.509Z,25.01
2022-10-05T11:23:34.135Z,26.11
2022-10-05T11:27:03.229Z,25.67
2022-10-05T11:30:48.843Z,25.29
2022-10-05T11:34:26.534Z,24.92
2022-10-05T11:37:56.509Z,23.65
2022-10-05T11:41:18.741Z,23.66
2022-10-05T11:44:45.961Z,23.45
2022-10-05T11:48:23.759Z,23.35
2022-10-05T11:51:35.383Z,24.04
2022-10-05T11:55:11.653Z,24.67
2022-10-05T11:58:20.916Z,25.63
2022-10-05T12:01:34.585Z,25.88
2022-10-05T12:04:49.024Z,24.80
2022-10-05T12:08:04.321Z,23.21
2022-10-05T12:11:26.655Z,24.12
2022-10-05T12:14:41.463Z,24.31
2022-10-05T12:17:53.415Z,23.75
2022-10-05T12:21:00.365Z,23.84
2022-10-05T12:24:10.441Z,24.08
2022-10-05T12:27:19.650Z,24.75
2022-10-05T12:30:30.635Z,25.17
2022-10-05T12:33:38.914Z,25.49
2022-10-05T12:37:03.617Z,25.19
2022-10-05T12:40:21.550Z,24.84
2022-10-05T12:43:34.385Z,24.79
2022-10-05T12:46:43.946Z,24.75
2022-10-05T12:49:59.639Z,24.90
2022-10-05T12:53:22.426Z,25.50
2022-10-05T12:56:37.946Z,25.27
2022-10-05T12:59:45.856Z,25.24
2022-10-05T13:02:50.952Z,25.30
2022-10-05T13:06:02.791Z,25.97
2022-10-05T13:09:11.448Z,25.89
2022-10-05T13:12:20.686Z,25.59
2022-10-05T13:15:29.659Z,24.71
2022-10-05T13:18:44.262Z,25.00
2022-10-05T13:22:10.457Z,25.38
2022-10-05T13:25:26.647Z,25.48
2022-10-05T13:28:39.200Z,24.88
2022-10-05T13:31:47.828Z,25.20
2022-10-05T13:34:57.849Z,25.85
2022-10-05T13:38:09.134Z,25.40
2022-10-05T13:41:24.302Z,25.66
2022-10-05T13:44:34.934Z,25.25
2022-10-05T13:47:47.507Z,25.47
2022-10-05T13:51:00.891Z,25.11
2022-10-05T13:54:13.967Z,25.07
2022-10-05T13:57:26.656Z,25.48
2022-10-05T14:00:29.577Z,25.02
2022-10-05T14:03:35.945Z,25.14
2022-10-05T14:06:39.903Z,24.87
2022-10-05T14:09:49.308Z,25.22
2022-10-05T14:12:55.033Z,25.19
2022-10-05T14:16:22.679Z,25.20
2022-10-05T14:19:31.839Z,25.42
2022-10-05T14:22:42.592Z,25.57
2022-10-05T14:25:50.254Z,24.57
2022-10-05T14:28:59.673Z,24.54
2022-10-05T14:32:04.129Z,23.59
2022-10-05T14:35:16.593Z,23.98
2022-10-05T14:38:22.483Z,23.69
2022-10-05T14:41:27.287Z,23.16
2022-10-05T14:47:48.895Z,23.29
2022-10-05T14:50:55.669Z,23.41
2022-10-05T14:54:00.609Z,23.71
2022-10-05T14:57:23.280Z,24.15
2022-10-05T15:00:26.075Z,24.38
2022-10-05T15:03:43.799Z,24.26
2022-10-05T15:06:57.618Z,23.97
2022-10-05T15:10:15.114Z,23.98
2022-10-05T15:13:21.261Z,23.24
2022-10-05T15:16:28.853Z,22.91
2022-10-05T15:19:44.731Z,22.49
2022-10-05T15:22:53.416Z,22.75
2022-10-05T15:26:08.306Z,22.73
2022-10-05T15:29:21.741Z,22.98
2022-10-05T15:32:41.637Z,22.92
2022-10-05T15:35:55.463Z,22.98
2022-10-05T15:39:06.499Z,22.63
2022-10-05T15:42:14.587Z,22.63
2022-10-05T15:45:23.341Z,22.49
2022-10-05T15:48:36.807Z,21.56
2022-10-05T15:51:50.791Z,21.67
2022-10-05T15:55:18.136Z,22.21
2022-10-05T15:58:40.679Z,22.41
2022-10-05T16:01:51.302Z,22.28
2022-10-05T16:05:04.926Z,21.38
2022-10-05T16:08:36.651Z,22.22
2022-10-05T16:12:00.022Z,21.84
2022-10-05T16:15:16.495Z,21.91
2022-10-05T16:18:43.319Z,21.61
2022-10-05T16:21:54.044Z,21.46
2022-10-05T16:25:07.964Z,21.26
2022-10-05T16:28:24.773Z,21.18
2022-10-05T16:31:34.515Z,21.12
2022-10-05T16:34:54.205Z,21.01
2022-10-05T16:38:06.662Z,20.70
2022-10-05T16:41:14.209Z,20.85
2022-10-05T16:44:30.222Z,20.57
2022-10-05T16:47:45.015Z,20.16
2022-10-05T16:50:59.429Z,20.53
2022-10-05T16:54:13.965Z,20.39
2022-10-05T16:57:20.945Z,20.27
2022-10-05T17:00:25.665Z,20.18
2022-10-05T17:03:43.045Z,20.16
2022-10-05T17:07:09.899Z,20.16
2022-10-05T17:10:41.053Z,20.12
2022-10-05T17:14:15.063Z,19.94
2022-10-05T17:17:55.577Z,19.91
2022-10-05T17:21:12.298Z,20.18
2022-10-05T17:24:32.221Z,20.16
2022-10-05T17:27:51.006Z,20.07
2022-10-05T17:31:09.345Z,20.00
2022-10-05T17:34:27.271Z,20.02
2022-10-05T17:37:36.127Z,20.10
2022-10-05T17:40:40.826Z,19.50
2022-10-05T17:44:20.078Z,19.57
2022-10-05T17:47:55.712Z,19.73
2022-10-05T17:51:17.251Z,19.56
2022-10-05T17:54:39.596Z,19.62
2022-10-05T17:57:42.087Z,19.82
2022-10-05T18:01:16.990Z,19.74
2022-10-05T18:04:34.445Z,19.77
2022-10-05T18:07:39.293Z,19.68
2022-10-05T18:11:07.241Z,19.94
2022-10-05T18:14:20.289Z,19.97
2022-10-05T18:17:39.881Z,19.86
2022-10-05T18:20:44.750Z,19.84
2022-10-05T18:24:02.569Z,19.69
2022-10-05T18:27:16.786Z,19.82
2022-10-05T18:30:22.581Z,19.72
2022-10-05T18:33:42.355Z,19.92
2022-10-05T18:37:07.379Z,19.84
2022-10-05T18:40:25.514Z,19.89
2022-10-05T18:43:34.810Z,18.35
2022-10-05T18:46:47.736Z,18.55
2022-10-05T18:50:03.618Z,18.55
2022-10-05T18:53:18.990Z,19.02
2022-10-05T18:56:31.187Z,19.11
2022-10-05T18:59:46.878Z,19.06
2022-10-05T19:02:52.835Z,19.11
2022-10-05T19:06:03.390Z,19.01
2022-10-05T19:09:19.159Z,19.03
2022-10-05T19:12:38.117Z,19.10
2022-10-05T19:15:50.990Z,18.98
2022-10-05T19:19:10.071Z,19.03
2022-10-05T19:22:22.531Z,18.85
2022-10-05T19:25:37.290Z,19.04
2022-10-05T19:28:53.304Z,19.14
2022-10-05T19:32:03.540Z,19.16
2022-10-05T19:35:19.557Z,17.79
2022-10-05T19:38:30.558Z,17.92
2022-10-05T19:41:45.633Z,17.94
2022-10-05T19:45:01.582Z,18.01
2022-10-05T19:48:21.029Z,18.03
2022-10-05T19:51:30.342Z,18.08
2022-10-05T19:54:33.417Z,17.77
2022-10-05T19:57:37.673Z,18.15
2022-10-05T20:00:42.354Z,18.39
2022-10-05T20:03:48.677Z,18.64
2022-10-05T20:06:51.146Z,18.54
2022-10-05T20:09:57.989Z,18.69
2022-10-05T20:13:01.765Z,18.71
2022-10-05T20:16:37.570Z,18.79
2022-10-05T20:19:57.759Z,18.39
2022-10-05T20:23:19.634Z,18.52
2022-10-05T20:26:58.093Z,18.94
2022-10-05T20:30:02.218Z,18.77
2022-10-05T20:33:10.394Z,18.70
2022-10-05T20:36:12.948Z,18.33
2022-10-05T20:39:16.666Z,18.58
2022-10-05T20:42:20.534Z,18.39
2022-10-05T20:45:23.157Z,18.33
2022-10-05T20:48:27.489Z,18.51
2022-10-05T20:51:30.470Z,18.71
2022-10-05T20:54:33.161Z,18.71
2022-10-05T20:57:38.517Z,19.10
2022-10-05T21:00:59.085Z,19.14
2022-10-05T21:04:07.944Z,18.02
2022-10-05T21:07:10.618Z,17.70
2022-10-05T21:10:14.221Z,17.58
2022-10-05T21:13:17.560Z,17.29
2022-10-05T21:16:20.483Z,17.07
2022-10-05T21:19:24.299Z,17.31
2022-10-05T21:22:26.751Z,17.48
2022-10-05T21:25:29.253Z,17.49
2022-10-05T21:28:33.827Z,17.53
2022-10-05T21:31:36.801Z,17.67
2022-10-05T21:34:41.130Z,17.72
2022-10-05T21:37:43.563Z,17.80
2022-10-05T21:40:46.057Z,18.23
2022-10-05T21:43:49.243Z,17.85
2022-10-05T21:46:52.217Z,17.71
2022-10-05T21:49:56.140Z,18.09
2022-10-05T21:53:00.708Z,18.98
2022-10-05T21:56:06.177Z,18.94
2022-10-05T21:59:11.696Z,19.11
2022-10-05T22:02:14.149Z,19.36
2022-10-05T22:05:18.374Z,19.45
2022-10-05T22:08:23.550Z,19.62
2022-10-05T22:11:26.858Z,19.40
2022-10-05T22:14:29.291Z,19.54
2022-10-05T22:17:32.242Z,19.43
2022-10-05T22:20:36.411Z,19.60
2022-10-05T22:23:39.447Z,19.55
2022-10-05T22:26:44.502Z,19.73
2022-10-05T22:29:47.195Z,19.67
2022-10-05T22:32:49.643Z,19.89
2022-10-05T22:35:54.038Z,20.01
2022-10-05T22:38:56.499Z,19.76
2022-10-05T22:41:59.418Z,19.52
2022-10-05T22:45:01.862Z,19.52
2022-10-05T22:48:04.777Z,19.52
2022-10-05T22:51:09.149Z,19.60
2022-10-05T22:54:11.583Z,19.35
2022-10-05T22:57:14.035Z,19.16
2022-10-05T23:00:17.017Z,18.46
2022-10-05T23:03:19.462Z,18.52
2022-10-05T23:06:24.042Z,18.48
2022-10-05T23:09:26.483Z,17.74
2022-10-05T23:12:28.957Z,17.76
2022-10-05T23:15:31.401Z,17.83
2022-10-05T23:18:34.358Z,18.04
2022-10-05T23:21:38.254Z,19.08
2022-10-05T23:24:40.704Z,19.02
2022-10-05T23:27:44.117Z,19.20
2022-10-05T23:30:46.609Z,18.98
2022-10-05T23:33:49.083Z,18.95
2022-10-05T23:36:52.886Z,18.89
2022-10-05T23:39:55.362Z,19.02
2022-10-05T23:42:58.244Z,19.39
2022-10-05T23:46:01.908Z,19.49
2022-10-05T23:49:04.436Z,19.51
2022-10-05T23:52:08.216Z,19.72
2022-10-05T23:55:11.225Z,19.82
2022-10-05T23:58:13.712Z,19.58
